Majestic — ZCPX7 — position and weather

sailwx.info

Track history (hours):
 
Tides and Currents Weather Stations Pressure Air Temp Water Temp Dewpoint Dewpoint Depression Visibility Wind Speed Wind Dir Waves Ship Positions

Majestic

Last reported at 2015-Aug-04 02:32 UTC. Time now 2015-Aug-04 03:20 UTC.
Position N 43°16' E 006°38'.

Length 61 m; draft 3.4 m.

Type: Pleasure craft. MMSI: 319654000.

Date/timePositionNaut miles runAvg speedWind from/ knotsBaromVisibWave heightAir tempDewpointWater temp
2015-Aug-04 02:32N 43°16' E 006°38'0 0.0
2015-Aug-04 01:32N 43°16' E 006°38'0 0.0
2015-Aug-04 00:32N 43°16' E 006°38'0 0.0
2015-Aug-03 23:32N 43°16' E 006°38'0 0.0
2015-Aug-03 22:26N 43°16' E 006°38'0 0.0
2015-Aug-03 21:23N 43°16' E 006°38'0 0.0
2015-Aug-03 20:33N 43°16' E 006°38'0 0.0
2015-Aug-03 19:33N 43°16' E 006°38'0 0.0
2015-Aug-03 18:20N 43°16' E 006°38'0 0.1
2015-Aug-03 17:33N 43°16' E 006°38'4 3.8
2015-Aug-03 16:33N 43°16' E 006°43'3 2.8
2015-Aug-03 15:26N 43°13' E 006°40'0 0.0
2015-Aug-03 14:29N 43°13' E 006°40'0 0.0
2015-Aug-03 13:24N 43°13' E 006°40'0 0.0
2015-Aug-03 12:32N 43°13' E 006°40'0 0.0
2015-Aug-03 11:27N 43°13' E 006°40'0 0.0
2015-Aug-03 10:30N 43°13' E 006°40'0 0.0
2015-Aug-03 09:27N 43°13' E 006°40'0 0.0
2015-Aug-03 08:33N 43°13' E 006°40'0 0.0
2015-Aug-03 07:34N 43°13' E 006°40'4 4.3
2015-Aug-03 06:33N 43°17' E 006°41'2 2.0
2015-Aug-03 05:23N 43°16' E 006°38'0 0.0
2015-Aug-03 04:29N 43°16' E 006°38'0 0.0
2015-Aug-03 03:23N 43°16' E 006°38'0 0.0
2015-Aug-03 02:26N 43°16' E 006°38'0 0.0
2015-Aug-03 01:29N 43°16' E 006°38'0 0.0
2015-Aug-03 00:29N 43°16' E 006°38'0 0.0
2015-Aug-02 23:29N 43°16' E 006°38'0 0.0
2015-Aug-02 22:29N 43°16' E 006°38'0 0.0
2015-Aug-02 21:14N 43°16' E 006°38'0 0.0
2015-Aug-02 20:29N 43°16' E 006°38'0 0.0
2015-Aug-02 19:29N 43°16' E 006°38'0 0.0
2015-Aug-02 17:11N 43°16' E 006°38'0 0.2
2015-Aug-02 16:33N 43°16' E 006°38'3 2.8
2015-Aug-02 15:34N 43°14' E 006°40'0 0.0
2015-Aug-02 14:33N 43°14' E 006°40'0 0.0
2015-Aug-02 13:09N 43°14' E 006°40'0 0.0
2015-Aug-02 12:21N 43°14' E 006°40'0 0.0
2015-Aug-02 11:09N 43°14' E 006°40'0 0.0
2015-Aug-02 10:33N 43°14' E 006°40'0 0.0
2015-Aug-02 09:33N 43°14' E 006°40'0 0.0
2015-Aug-02 08:33N 43°14' E 006°40'6 5.9
2015-Aug-02 07:32N 43°19' E 006°46'1312.9
2015-Aug-02 06:33N 43°28' E 006°58'6 4.7
2015-Aug-02 05:22N 43°33' E 007°01'0 0.0
2015-Aug-02 04:21N 43°33' E 007°01'0 0.0
2015-Aug-02 03:33N 43°33' E 007°01'0 0.0
2015-Aug-02 02:33N 43°33' E 007°01'0 0.0
2015-Aug-02 01:33N 43°33' E 007°01'0 0.0
2015-Aug-02 00:33N 43°33' E 007°01'0 0.0
2015-Aug-01 23:33N 43°33' E 007°01'0 0.0
2015-Aug-01 22:27N 43°33' E 007°01'0 0.0
2015-Aug-01 21:27N 43°33' E 007°01'0 0.0
2015-Aug-01 20:33N 43°33' E 007°01'0 0.0
2015-Aug-01 19:21N 43°33' E 007°01'0 0.0
2015-Aug-01 18:33N 43°33' E 007°01'0 0.0
2015-Aug-01 17:09N 43°33' E 007°01'0 0.0
2015-Aug-01 16:27N 43°33' E 007°01'0 0.0
2015-Aug-01 10:27N 43°33' E 007°01'0 0.0
2015-Aug-01 08:15N 43°33' E 007°01'0 0.0
2015-Aug-01 07:33N 43°33' E 007°01'0 0.0
2015-Aug-01 06:27N 43°33' E 007°01'0 0.0
2015-Aug-01 05:27N 43°33' E 007°01'0 0.0
2015-Jul-31 15:31N 43°32' E 007°01'0 0.0
2015-Jul-31 13:13N 43°32' E 007°01'0 0.0
2015-Jul-31 12:25N 43°32' E 007°01'0 0.0
2015-Jul-31 11:25N 43°32' E 007°01'0 0.0
2015-Jul-31 10:31N 43°32' E 007°01'0 0.0
2015-Jul-31 03:07N 43°32' E 007°01'5 8.8
2015-Jul-31 02:33N 43°28' E 007°03'1211.7
2015-Jul-31 01:33N 43°18' E 007°12'1311.7
2015-Jul-31 00:29N 43°07' E 007°21'1112.1
2015-Jul-30 23:33N 42°58' E 007°30'  
Track history (hours):
 
Tides and Currents Weather Stations Pressure Air Temp Water Temp Dewpoint Dewpoint Depression Visibility Wind Speed Wind Dir Waves Ship Positions

Majestic

Last reported at 2015-Aug-04 02:32 UTC. Time now 2015-Aug-04 03:20 UTC.
Position N 43°16' E 006°38'.

Length 61 m; draft 3.4 m.

Type: Pleasure craft. MMSI: 319654000.

Date/timePositionNaut miles runAvg speedWind from/ knotsBaromVisibWave heightAir tempDewpointWater temp
2015-Aug-04 02:32N 43°16' E 006°38'0 0.0
2015-Aug-04 01:32N 43°16' E 006°38'0 0.0
2015-Aug-04 00:32N 43°16' E 006°38'0 0.0
2015-Aug-03 23:32N 43°16' E 006°38'0 0.0
2015-Aug-03 22:26N 43°16' E 006°38'0 0.0
2015-Aug-03 21:23N 43°16' E 006°38'0 0.0
2015-Aug-03 20:33N 43°16' E 006°38'0 0.0
2015-Aug-03 19:33N 43°16' E 006°38'0 0.0
2015-Aug-03 18:20N 43°16' E 006°38'0 0.1
2015-Aug-03 17:33N 43°16' E 006°38'4 3.8
2015-Aug-03 16:33N 43°16' E 006°43'3 2.8
2015-Aug-03 15:26N 43°13' E 006°40'0 0.0
2015-Aug-03 14:29N 43°13' E 006°40'0 0.0
2015-Aug-03 13:24N 43°13' E 006°40'0 0.0
2015-Aug-03 12:32N 43°13' E 006°40'0 0.0
2015-Aug-03 11:27N 43°13' E 006°40'0 0.0
2015-Aug-03 10:30N 43°13' E 006°40'0 0.0
2015-Aug-03 09:27N 43°13' E 006°40'0 0.0
2015-Aug-03 08:33N 43°13' E 006°40'0 0.0
2015-Aug-03 07:34N 43°13' E 006°40'4 4.3
2015-Aug-03 06:33N 43°17' E 006°41'2 2.0
2015-Aug-03 05:23N 43°16' E 006°38'0 0.0
2015-Aug-03 04:29N 43°16' E 006°38'0 0.0
2015-Aug-03 03:23N 43°16' E 006°38'0 0.0
2015-Aug-03 02:26N 43°16' E 006°38'0 0.0
2015-Aug-03 01:29N 43°16' E 006°38'0 0.0
2015-Aug-03 00:29N 43°16' E 006°38'0 0.0
2015-Aug-02 23:29N 43°16' E 006°38'0 0.0
2015-Aug-02 22:29N 43°16' E 006°38'0 0.0
2015-Aug-02 21:14N 43°16' E 006°38'0 0.0
2015-Aug-02 20:29N 43°16' E 006°38'0 0.0
2015-Aug-02 19:29N 43°16' E 006°38'0 0.0
2015-Aug-02 17:11N 43°16' E 006°38'0 0.2
2015-Aug-02 16:33N 43°16' E 006°38'3 2.8
2015-Aug-02 15:34N 43°14' E 006°40'0 0.0
2015-Aug-02 14:33N 43°14' E 006°40'0 0.0
2015-Aug-02 13:09N 43°14' E 006°40'0 0.0
2015-Aug-02 12:21N 43°14' E 006°40'0 0.0
2015-Aug-02 11:09N 43°14' E 006°40'0 0.0
2015-Aug-02 10:33N 43°14' E 006°40'0 0.0
2015-Aug-02 09:33N 43°14' E 006°40'0 0.0
2015-Aug-02 08:33N 43°14' E 006°40'6 5.9
2015-Aug-02 07:32N 43°19' E 006°46'1312.9
2015-Aug-02 06:33N 43°28' E 006°58'6 4.7
2015-Aug-02 05:22N 43°33' E 007°01'0 0.0
2015-Aug-02 04:21N 43°33' E 007°01'0 0.0
2015-Aug-02 03:33N 43°33' E 007°01'0 0.0
2015-Aug-02 02:33N 43°33' E 007°01'0 0.0
2015-Aug-02 01:33N 43°33' E 007°01'0 0.0
2015-Aug-02 00:33N 43°33' E 007°01'0 0.0
2015-Aug-01 23:33N 43°33' E 007°01'0 0.0
2015-Aug-01 22:27N 43°33' E 007°01'0 0.0
2015-Aug-01 21:27N 43°33' E 007°01'0 0.0
2015-Aug-01 20:33N 43°33' E 007°01'0 0.0
2015-Aug-01 19:21N 43°33' E 007°01'0 0.0
2015-Aug-01 18:33N 43°33' E 007°01'0 0.0
2015-Aug-01 17:09N 43°33' E 007°01'0 0.0
2015-Aug-01 16:27N 43°33' E 007°01'0 0.0
2015-Aug-01 10:27N 43°33' E 007°01'0 0.0
2015-Aug-01 08:15N 43°33' E 007°01'0 0.0
2015-Aug-01 07:33N 43°33' E 007°01'0 0.0
2015-Aug-01 06:27N 43°33' E 007°01'0 0.0
2015-Aug-01 05:27N 43°33' E 007°01'0 0.0
2015-Jul-31 15:31N 43°32' E 007°01'0 0.0
2015-Jul-31 13:13N 43°32' E 007°01'0 0.0
2015-Jul-31 12:25N 43°32' E 007°01'0 0.0
2015-Jul-31 11:25N 43°32' E 007°01'0 0.0
2015-Jul-31 10:31N 43°32' E 007°01'0 0.0
2015-Jul-31 03:07N 43°32' E 007°01'5 8.8
2015-Jul-31 02:33N 43°28' E 007°03'1211.7
2015-Jul-31 01:33N 43°18' E 007°12'1311.7
2015-Jul-31 00:29N 43°07' E 007°21'1112.1
2015-Jul-30 23:33N 42°58' E 007°30'  

Dump ship's entire track history